Time;durP1;ratioP1;P1;durP2;ratioP2;P2;SDS_P1;SDS_P2;PMS_P1;PMS_P2;Temp;Humidity;BMP_temperature;BMP_pressure;BME280_temperature;BME280_humidity;BME280_pressure;Samples;Min_cycle;Max_cycle;Signal;HPM_P1;HPM_P2
2023/09/05 07:42:20;;;;;;;;;;;;;;;7.14;100.00;100049.19;5525694;23;19930;-86
2023/09/05 07:44:45;;;;;;;;;;;;;;;7.14;100.00;100046.56;5006270;28;20549;-85
2023/09/05 07:47:10;;;;;;;;;;;;;;;7.21;100.00;100048.13;4995145;28;19925;-85
2023/09/05 07:49:36;;;;;;;;;;;;;;;7.15;100.00;100053.53;5027886;28;20407;-85
2023/09/05 07:52:01;;;;;;;;;;;;;;;7.16;100.00;100050.88;5010855;28;20383;-85
2023/09/05 07:54:27;;;;;;;;;;;;;;;7.17;100.00;100051.75;5010323;28;19933;-85
2023/09/05 07:56:52;;;;;;;;;;;;;;;7.23;100.00;100052.47;5010098;28;19956;-86
2023/09/05 08:01:52;;;;;;;;;;;;;;;16.50;100.00;100011.84;5007363;22;20275;-79
2023/09/05 08:04:18;;;;;;;;;;;;;;;12.03;100.00;100017.34;5000695;28;19926;-84
2023/09/05 08:06:43;;;;;;;;;;;;;;;9.07;100.00;100034.03;4996400;28;20020;-83
2023/09/05 08:09:08;;;;;;;;;;;;;;;8.42;100.00;100045.72;5001654;28;19932;-86
2023/09/05 08:11:34;;;;;;;;;;;;;;;8.04;100.00;100037.13;5003267;28;20436;-85
2023/09/05 08:13:59;;;;;;;;;;;;;;;7.86;100.00;100038.53;5000683;28;19925;-84
2023/09/05 08:16:25;;;;;;;;;;;;;;;7.77;100.00;100052.81;4995245;28;20000;-85
2023/09/05 08:18:50;;;;;;;;;;;;;;;7.64;100.00;100047.91;4997252;28;20004;-87
2023/09/05 08:21:16;;;;;;;;;;;;;;;7.60;100.00;100050.66;4999140;28;19921;-84
2023/09/05 08:23:42;;;;;;;;;;;;;;;7.50;100.00;100049.16;4998221;28;19929;-83
2023/09/05 08:26:10;;;;;;;;;;;;;;;7.54;100.00;100046.38;5001502;28;19928;-91
2023/09/05 08:28:36;;;;;;;;;;;;;;;7.41;100.00;100050.25;4985124;28;19921;-83
2023/09/05 08:31:02;;;;;;;;;;;;;;;7.45;100.00;100046.63;5002076;28;20884;-84
2023/09/05 08:33:29;;;;;;;;;;;;;;;7.48;100.00;100037.78;5001932;28;19924;-82
2023/09/05 08:35:54;;;;;;;;;;;;;;;7.49;100.00;100043.00;4985875;28;19917;-90
2023/09/05 08:38:22;;;;;;;;;;;;;;;7.38;100.00;100031.88;4985050;28;20312;-88
2023/09/05 08:40:50;;;;;;;;;;;;;;;7.32;100.00;100030.25;5002002;28;19922;-87
2023/09/05 08:43:17;;;;;;;;;;;;;;;7.44;100.00;100037.84;4985115;28;20430;-85
2023/09/05 08:45:44;;;;;;;;;;;;;;;7.35;100.00;100039.88;4998299;28;20012;-85
2023/09/05 08:48:09;;;;;;;;;;;;;;;7.55;100.00;100042.00;5000696;28;20279;-84
2023/09/05 08:50:35;;;;;;;;;;;;;;;7.38;100.00;100030.09;5002435;28;19918;-85
2023/09/05 08:53:03;;;;;;;;;;;;;;;7.54;100.00;100020.03;4999400;28;19929;-84
2023/09/05 08:55:29;;;;;;;;;;;;;;;7.39;100.00;100026.56;4999706;28;20372;-85
2023/09/05 08:57:55;;;;;;;;;;;;;;;7.46;100.00;100027.28;4998980;28;19932;-84
2023/09/05 09:00:21;;;;;;;;;;;;;;;7.40;100.00;100017.78;4997409;28;19925;-84
2023/09/05 09:02:46;;;;;;;;;;;;;;;7.59;100.00;100019.91;5000352;28;20393;-85
2023/09/05 09:05:12;;;;;;;;;;;;;;;7.39;100.00;100018.66;4999894;28;19988;-85
2023/09/05 09:07:37;;;;;;;;;;;;;;;7.38;100.00;100023.97;5001086;28;20421;-83
2023/09/05 09:10:19;;;;;;;;;;;;;;;7.37;100.00;100015.22;5000589;28;20399;-85
2023/09/05 09:12:44;;;;;;;;;;;;;;;7.37;100.00;100023.13;4997999;28;20010;-85
2023/09/05 09:15:13;;;;;;;;;;;;;;;7.39;100.00;100015.19;4998887;28;19976;-85
2023/09/05 09:17:48;;;;;;;;;;;;;;;7.42;100.00;100020.38;4999293;28;19922;-85
2023/09/05 09:20:14;;;;;;;;;;;;;;;7.50;100.00;100022.78;4999201;28;20372;-85
2023/09/05 09:22:40;;;;;;;;;;;;;;;7.50;100.00;100018.38;4998563;28;19922;-85
2023/09/05 09:25:20;;;;;;;;;;;;;;;7.34;100.00;100017.03;5003875;28;20009;-85
2023/09/05 09:27:49;;;;;;;;;;;;;;;7.46;100.00;100007.03;4988195;28;19918;-86
2023/09/05 09:30:15;;;;;;;;;;;;;;;7.42;100.00;100005.41;5001541;28;19933;-85
2023/09/05 09:32:40;;;;;;;;;;;;;;;7.33;100.00;100010.91;4986765;28;19925;-86
2023/09/05 09:35:06;;;;;;;;;;;;;;;7.37;100.00;100011.69;5004617;28;20012;-85
2023/09/05 09:37:31;;;;;;;;;;;;;;;7.32;100.00;100009.16;5002552;28;20280;-86
2023/09/05 09:39:58;;;;;;;;;;;;;;;7.33;100.00;100008.28;4987340;28;19926;-85
2023/09/05 09:42:24;;;;;;;;;;;;;;;7.45;100.00;100014.97;5005181;28;19960;-83
2023/09/05 09:44:49;;;;;;;;;;;;;;;7.28;100.00;100016.31;5001892;28;20324;-86
2023/09/05 09:47:17;;;;;;;;;;;;;;;7.38;100.00;100021.34;4986096;28;19921;-84
2023/09/05 09:49:45;;;;;;;;;;;;;;;7.38;100.00;100014.28;5002220;28;20446;-85
2023/09/05 09:52:12;;;;;;;;;;;;;;;7.45;100.00;100012.34;5001924;28;19969;-84
2023/09/05 09:54:38;;;;;;;;;;;;;;;7.40;100.00;100012.50;4985828;28;19946;-85
2023/09/05 09:57:06;;;;;;;;;;;;;;;7.39;100.00;100005.47;4999802;28;19934;-84
2023/09/05 09:59:35;;;;;;;;;;;;;;;7.43;100.00;100003.63;5001111;28;20289;-85
2023/09/05 10:02:02;;;;;;;;;;;;;;;7.37;100.00;100003.78;4986593;28;19926;-86
2023/09/05 10:04:27;;;;;;;;;;;;;;;7.35;100.00;99995.91;5006395;28;20012;-87
2023/09/05 10:06:54;;;;;;;;;;;;;;;7.40;100.00;100001.94;5005698;28;20009;-86
2023/09/05 10:09:20;;;;;;;;;;;;;;;7.50;100.00;100004.31;5001165;28;20031;-86
2023/09/05 10:11:47;;;;;;;;;;;;;;;7.40;100.00;99996.69;5002650;28;20017;-81
2023/09/05 10:14:13;;;;;;;;;;;;;;;7.40;100.00;100007.22;5003431;28;19926;-85
2023/09/05 10:16:39;;;;;;;;;;;;;;;7.30;100.00;99997.81;5002347;28;20361;-89
2023/09/05 10:19:05;;;;;;;;;;;;;;;7.43;100.00;99985.16;5003597;28;20009;-85
2023/09/05 10:21:32;;;;;;;;;;;;;;;7.42;100.00;99984.31;5003701;28;20036;-85
2023/09/05 10:23:58;;;;;;;;;;;;;;;7.39;100.00;99973.84;5003729;28;19975;-85
2023/09/05 10:26:24;;;;;;;;;;;;;;;7.46;100.00;99974.53;4983537;28;20364;-87
2023/09/05 10:28:56;;;;;;;;;;;;;;;7.42;100.00;99979.03;5001390;28;19925;-85
2023/09/05 10:31:21;;;;;;;;;;;;;;;7.42;100.00;99963.22;5001887;28;19964;-85
2023/09/05 10:33:47;;;;;;;;;;;;;;;7.43;100.00;99964.94;5000057;28;19957;-86
2023/09/05 10:36:38;;;;;;;;;;;;;;;7.35;100.00;99961.66;5000398;28;19966;-87
2023/09/05 10:39:15;;;;;;;;;;;;;;;7.48;100.00;99959.53;4999301;28;19921;-86
2023/09/05 10:41:41;;;;;;;;;;;;;;;7.42;100.00;99957.94;5002886;28;19926;-85
2023/09/05 10:44:06;;;;;;;;;;;;;;;7.39;100.00;99967.72;5003048;28;19948;-82
2023/09/05 10:46:31;;;;;;;;;;;;;;;7.38;100.00;99960.72;5000615;28;19972;-85
2023/09/05 10:49:09;;;;;;;;;;;;;;;7.45;100.00;99954.34;5004197;28;20328;-86
2023/09/05 10:51:34;;;;;;;;;;;;;;;7.46;100.00;99959.56;5000951;28;19948;-86
2023/09/05 10:54:19;;;;;;;;;;;;;;;7.49;100.00;99958.63;5000325;28;20308;-88
2023/09/05 10:56:45;;;;;;;;;;;;;;;7.45;100.00;99952.59;5001845;28;19922;-86
2023/09/05 10:59:11;;;;;;;;;;;;;;;7.38;100.00;99951.00;5004749;28;19926;-84
2023/09/05 11:01:36;;;;;;;;;;;;;;;7.52;100.00;99947.16;5002744;28;20262;-87
2023/09/05 11:04:10;;;;;;;;;;;;;;;7.63;100.00;99948.56;5001545;28;19929;-86
2023/09/05 11:06:35;;;;;;;;;;;;;;;7.51;100.00;99946.28;5001460;28;20107;-85
2023/09/05 11:09:05;;;;;;;;;;;;;;;7.46;100.00;99953.44;5001718;28;20068;-85
2023/09/05 11:11:31;;;;;;;;;;;;;;;7.55;100.00;99941.81;5003299;28;20107;-86
2023/09/05 11:13:57;;;;;;;;;;;;;;;7.55;100.00;99952.34;5004263;28;20404;-86
2023/09/05 11:16:22;;;;;;;;;;;;;;;7.51;100.00;99942.78;5002976;28;19917;-85
2023/09/05 11:18:54;;;;;;;;;;;;;;;7.43;100.00;99949.13;5004234;28;19925;-85
2023/09/05 11:21:22;;;;;;;;;;;;;;;7.37;100.00;99933.50;5001635;28;19944;-87
2023/09/05 11:23:52;;;;;;;;;;;;;;;7.51;100.00;99941.00;5003043;28;19929;-86
2023/09/05 11:26:18;;;;;;;;;;;;;;;7.41;100.00;99935.13;5003562;28;19922;-86
2023/09/05 11:28:45;;;;;;;;;;;;;;;7.38;100.00;99937.84;5002436;28;19925;-87
2023/09/05 11:31:10;;;;;;;;;;;;;;;7.40;100.00;99938.69;4983973;28;20015;-87
2023/09/05 11:33:37;;;;;;;;;;;;;;;7.52;100.00;99934.81;5004178;28;20016;-86
2023/09/05 11:36:04;;;;;;;;;;;;;;;7.50;100.00;99935.75;5003716;28;19949;-87
2023/09/05 11:38:30;;;;;;;;;;;;;;;7.53;100.00;99938.31;5000296;28;19924;-86
2023/09/05 11:40:57;;;;;;;;;;;;;;;7.42;100.00;99936.84;4984724;28;20369;-87
2023/09/05 11:43:23;;;;;;;;;;;;;;;7.41;100.00;99937.75;5002958;28;19914;-88
2023/09/05 11:45:52;;;;;;;;;;;;;;;7.40;100.00;99932.53;5000669;28;19928;-88
2023/09/05 11:48:18;;;;;;;;;;;;;;;7.42;100.00;99931.59;5003806;28;19926;-90
2023/09/05 11:50:53;;;;;;;;;;;;;;;7.46;100.00;99937.63;5004123;28;19918;-88
2023/09/05 11:53:24;;;;;;;;;;;;;;;7.37;100.00;99928.22;5000730;28;19922;-86
2023/09/05 11:55:50;;;;;;;;;;;;;;;7.52;100.00;99931.34;5003723;28;19953;-86
2023/09/05 11:58:19;;;;;;;;;;;;;;;7.52;100.00;99926.06;4999497;28;19972;-87
2023/09/05 12:00:45;;;;;;;;;;;;;;;7.40;100.00;99925.50;4999478;28;19921;-87
2023/09/05 12:03:15;;;;;;;;;;;;;;;7.53;100.00;99923.38;4992633;28;19925;-86
2023/09/05 12:05:41;;;;;;;;;;;;;;;7.56;100.00;99925.06;5001159;28;20464;-85
2023/09/05 12:08:08;;;;;;;;;;;;;;;7.50;100.00;99919.94;5002262;28;20004;-86
2023/09/05 12:10:50;;;;;;;;;;;;;;;7.52;100.00;99908.47;5002193;28;19918;-85
2023/09/05 12:13:17;;;;;;;;;;;;;;;7.42;100.00;99905.22;4996645;28;20483;-86
2023/09/05 12:15:43;;;;;;;;;;;;;;;7.50;100.00;99914.66;4998383;28;19922;-87
2023/09/05 12:18:08;;;;;;;;;;;;;;;7.66;100.00;99910.72;4983230;28;20009;-86
2023/09/05 12:20:35;;;;;;;;;;;;;;;7.58;100.00;99907.44;5001361;28;20016;-87
2023/09/05 12:23:05;;;;;;;;;;;;;;;7.66;100.00;99901.91;4983240;28;19921;-82
2023/09/05 12:25:31;;;;;;;;;;;;;;;7.61;100.00;99897.66;5001829;28;20376;-84
2023/09/05 12:28:15;;;;;;;;;;;;;;;7.53;100.00;99893.50;5000457;28;19929;-85
2023/09/05 12:30:41;;;;;;;;;;;;;;;7.72;100.00;99878.88;4999539;28;19925;-84
2023/09/05 12:33:06;;;;;;;;;;;;;;;7.67;100.00;99872.00;4981275;28;19982;-84
2023/09/05 12:35:32;;;;;;;;;;;;;;;7.66;100.00;99876.44;5000696;28;19921;-85
2023/09/05 12:38:01;;;;;;;;;;;;;;;7.60;100.00;99869.53;4999239;28;20063;-84
2023/09/05 12:40:27;;;;;;;;;;;;;;;7.73;100.00;99864.78;5000332;28;19921;-85
2023/09/05 12:42:52;;;;;;;;;;;;;;;7.78;100.00;99859.34;4982168;28;19921;-87
2023/09/05 12:45:21;;;;;;;;;;;;;;;7.70;100.00;99866.63;4996493;28;20000;-90
2023/09/05 12:47:52;;;;;;;;;;;;;;;7.63;100.00;99856.28;5014446;28;20056;-85
2023/09/05 12:50:22;;;;;;;;;;;;;;;7.67;100.00;99859.66;5001468;28;19918;-85
2023/09/05 12:52:48;;;;;;;;;;;;;;;7.57;100.00;99864.34;4987474;28;19924;-85
2023/09/05 12:55:14;;;;;;;;;;;;;;;7.62;100.00;99856.31;5000854;28;20372;-86
2023/09/05 12:57:40;;;;;;;;;;;;;;;7.71;100.00;99849.91;4998835;28;20015;-87
2023/09/05 13:00:07;;;;;;;;;;;;;;;7.60;100.00;99842.31;4980431;28;19980;-84
2023/09/05 13:02:33;;;;;;;;;;;;;;;7.51;100.00;99847.84;4999146;28;20020;-86
2023/09/05 13:04:59;;;;;;;;;;;;;;;7.64;100.00;99836.03;4998760;28;20056;-86
2023/09/05 13:07:24;;;;;;;;;;;;;;;7.55;100.00;99836.31;5000467;28;19921;-87
2023/09/05 13:09:49;;;;;;;;;;;;;;;7.66;100.00;99836.88;5001578;28;19925;-86
2023/09/05 13:12:15;;;;;;;;;;;;;;;7.60;100.00;99832.63;5002932;28;19918;-91
2023/09/05 13:14:51;;;;;;;;;;;;;;;7.59;100.00;99830.03;4980427;28;19957;-92
2023/09/05 13:17:17;;;;;;;;;;;;;;;7.64;100.00;99836.03;5000618;28;20300;-87
2023/09/05 13:19:43;;;;;;;;;;;;;;;7.67;100.00;99837.72;5001400;28;19922;-87
2023/09/05 13:22:08;;;;;;;;;;;;;;;7.58;100.00;99842.38;5002824;28;19919;-87
2023/09/05 13:24:34;;;;;;;;;;;;;;;7.70;100.00;99849.03;5002111;28;19922;-87
2023/09/05 13:27:00;;;;;;;;;;;;;;;7.64;100.00;99849.22;5002174;28;20340;-86
2023/09/05 13:29:25;;;;;;;;;;;;;;;7.64;100.00;99838.66;5000967;28;19920;-86
2023/09/05 13:31:50;;;;;;;;;;;;;;;7.61;100.00;99830.84;5002076;28;20024;-87
2023/09/05 13:34:16;;;;;;;;;;;;;;;7.63;100.00;99837.81;4998077;28;19979;-86
2023/09/05 13:36:41;;;;;;;;;;;;;;;7.64;100.00;99833.38;5001302;28;19968;-86
2023/09/05 13:39:06;;;;;;;;;;;;;;;7.61;100.00;99839.63;4997501;28;19921;-88
2023/09/05 13:41:32;;;;;;;;;;;;;;;7.59;100.00;99838.78;4995269;28;19926;-87
2023/09/05 13:43:58;;;;;;;;;;;;;;;7.55;100.00;99837.19;4997241;28;19963;-86
2023/09/05 13:46:23;;;;;;;;;;;;;;;7.61;100.00;99837.00;4996793;28;20017;-88
2023/09/05 13:48:50;;;;;;;;;;;;;;;7.62;100.00;99841.34;4980948;28;20008;-86
2023/09/05 13:51:21;;;;;;;;;;;;;;;7.68;100.00;99832.41;5003017;28;19968;-88
2023/09/05 13:53:46;;;;;;;;;;;;;;;7.64;100.00;99829.00;4984685;28;20400;-85
2023/09/05 13:56:14;;;;;;;;;;;;;;;7.70;100.00;99821.81;4999270;28;20372;-87
2023/09/05 13:58:40;;;;;;;;;;;;;;;7.59;100.00;99824.75;4997650;28;20340;-85
2023/09/05 14:01:05;;;;;;;;;;;;;;;7.62;100.00;99817.59;4979160;28;19928;-85
2023/09/05 14:03:30;;;;;;;;;;;;;;;7.65;100.00;99814.03;4999286;28;19925;-85
2023/09/05 14:05:56;;;;;;;;;;;;;;;7.75;100.00;99817.25;5002430;28;19913;-86
2023/09/05 14:08:21;;;;;;;;;;;;;;;7.67;100.00;99816.63;4983154;28;19949;-85
2023/09/05 14:10:48;;;;;;;;;;;;;;;7.62;100.00;99817.59;5002708;28;19921;-85
2023/09/05 14:13:14;;;;;;;;;;;;;;;7.69;100.00;99802.50;5004704;28;19918;-85
2023/09/05 14:15:39;;;;;;;;;;;;;;;7.74;100.00;99805.84;4983107;28;19944;-85
2023/09/05 14:18:04;;;;;;;;;;;;;;;7.68;100.00;99811.28;5002038;28;19925;-85
2023/09/05 14:20:30;;;;;;;;;;;;;;;7.73;100.00;99811.16;5000709;28;20032;-88
2023/09/05 14:22:55;;;;;;;;;;;;;;;7.68;100.00;99813.09;4985411;28;19926;-86
2023/09/05 14:25:20;;;;;;;;;;;;;;;7.75;100.00;99807.53;5002901;28;19922;-85
2023/09/05 14:27:46;;;;;;;;;;;;;;;7.77;100.00;99805.75;5002852;28;19975;-87
2023/09/05 14:30:11;;;;;;;;;;;;;;;7.68;100.00;99811.28;4983287;28;19976;-88
2023/09/05 14:32:36;;;;;;;;;;;;;;;7.66;100.00;99802.59;5004183;28;20395;-86
2023/09/05 14:35:01;;;;;;;;;;;;;;;7.69;100.00;99797.22;5002989;28;20372;-86
2023/09/05 14:37:27;;;;;;;;;;;;;;;7.79;100.00;99795.16;4987740;28;19921;-85
2023/09/05 14:39:55;;;;;;;;;;;;;;;7.85;100.00;99791.44;5001438;28;19928;-85
2023/09/05 14:42:21;;;;;;;;;;;;;;;7.76;100.00;99801.38;4993942;28;20048;-85
2023/09/05 14:44:46;;;;;;;;;;;;;;;7.71;100.00;99799.81;4974991;28;20084;-86
2023/09/05 14:47:11;;;;;;;;;;;;;;;7.70;100.00;99798.06;4993292;28;20308;-86
2023/09/05 14:49:39;;;;;;;;;;;;;;;7.76;100.00;99792.59;4994263;28;19925;-92
2023/09/05 14:52:40;;;;;;;;;;;;;;;7.70;100.00;99793.66;4991726;28;20008;-90
2023/09/05 14:55:10;;;;;;;;;;;;;;;7.70;100.00;99788.38;4994336;28;19917;-85
2023/09/05 14:57:35;;;;;;;;;;;;;;;7.78;100.00;99781.06;4995498;28;20358;-87
2023/09/05 15:00:02;;;;;;;;;;;;;;;7.72;100.00;99776.03;4976474;28;19922;-87
2023/09/05 15:02:28;;;;;;;;;;;;;;;7.78;100.00;99781.06;4994166;28;19971;-86
2023/09/05 15:04:53;;;;;;;;;;;;;;;7.81;100.00;99775.69;4994908;28;20012;-86
2023/09/05 15:07:18;;;;;;;;;;;;;;;7.70;100.00;99771.69;4977529;28;20546;-88
2023/09/05 15:09:44;;;;;;;;;;;;;;;7.63;100.00;99781.56;4993235;28;20368;-88
2023/09/05 15:12:10;;;;;;;;;;;;;;;7.76;100.00;99780.28;4994795;28;19922;-87
2023/09/05 15:14:37;;;;;;;;;;;;;;;7.73;100.00;99769.81;4974978;28;20032;-89
2023/09/05 15:17:03;;;;;;;;;;;;;;;7.75;100.00;99778.53;4994592;28;19922;-86
2023/09/05 15:19:28;;;;;;;;;;;;;;;7.67;100.00;99775.28;4992894;28;20387;-85
2023/09/05 15:21:56;;;;;;;;;;;;;;;7.74;100.00;99768.91;4975850;28;19965;-87
2023/09/05 15:24:24;;;;;;;;;;;;;;;7.72;100.00;99775.13;4991692;28;20393;-87
2023/09/05 15:26:50;;;;;;;;;;;;;;;7.73;100.00;99772.44;4991897;28;19925;-88
2023/09/05 15:29:16;;;;;;;;;;;;;;;7.73;100.00;99783.00;4975672;28;19969;-89
2023/09/05 15:31:41;;;;;;;;;;;;;;;7.71;100.00;99779.56;4993263;28;19933;-87
2023/09/05 15:34:08;;;;;;;;;;;;;;;7.76;100.00;99787.34;4994269;28;20454;-84
2023/09/05 15:36:34;;;;;;;;;;;;;;;7.85;100.00;99788.81;4976198;28;19932;-85
2023/09/05 15:38:59;;;;;;;;;;;;;;;7.82;100.00;99781.88;4992840;28;20020;-85
2023/09/05 15:41:25;;;;;;;;;;;;;;;7.72;100.00;99790.97;4992466;28;19922;-86
2023/09/05 15:43:50;;;;;;;;;;;;;;;7.77;100.00;99782.00;4976218;28;19933;-88
2023/09/05 15:46:16;;;;;;;;;;;;;;;7.70;100.00;99780.47;4990637;28;19990;-85
2023/09/05 15:49:02;;;;;;;;;;;;;;;7.71;100.00;99776.06;4994860;28;20357;-89
2023/09/05 15:51:31;;;;;;;;;;;;;;;7.76;100.00;99777.63;4976020;28;19918;-90
2023/09/05 15:53:57;;;;;;;;;;;;;;;7.76;100.00;99779.41;4975352;28;20013;-86
2023/09/05 15:56:22;;;;;;;;;;;;;;;7.71;100.00;99781.34;4993132;28;20012;-85
2023/09/05 15:59:13;;;;;;;;;;;;;;;7.72;100.00;99775.13;4992082;28;20297;-91
2023/09/05 16:01:39;;;;;;;;;;;;;;;7.78;100.00;99770.53;4991068;28;19921;-85
2023/09/05 16:04:05;;;;;;;;;;;;;;;7.69;100.00;99781.38;4991355;28;20348;-86
2023/09/05 16:06:30;;;;;;;;;;;;;;;7.76;100.00;99788.19;4975302;28;20360;-86
2023/09/05 16:08:56;;;;;;;;;;;;;;;7.86;100.00;99780.84;4990858;28;20008;-89
2023/09/05 16:11:21;;;;;;;;;;;;;;;7.74;100.00;99784.75;4992104;28;19926;-87
2023/09/05 16:13:49;;;;;;;;;;;;;;;7.76;100.00;99782.91;4975950;28;20028;-86
2023/09/05 16:16:18;;;;;;;;;;;;;;;7.80;100.00;99783.66;4990971;28;19922;-87
2023/09/05 16:18:44;;;;;;;;;;;;;;;7.77;100.00;99779.38;4992991;28;20311;-82
2023/09/05 16:21:11;;;;;;;;;;;;;;;7.81;100.00;99783.63;4992565;28;19940;-88
2023/09/05 16:23:37;;;;;;;;;;;;;;;7.74;100.00;99776.81;4993413;28;20377;-87
2023/09/05 16:26:02;;;;;;;;;;;;;;;7.80;100.00;99781.91;4992609;28;19924;-88
2023/09/05 16:28:30;;;;;;;;;;;;;;;7.75;100.00;99780.31;4993537;28;19921;-85
2023/09/05 16:30:56;;;;;;;;;;;;;;;7.73;100.00;99785.63;4992599;28;19929;-94
2023/09/05 16:33:31;;;;;;;;;;;;;;;7.84;100.00;99785.31;4975614;28;20428;-86
2023/09/05 16:36:00;;;;;;;;;;;;;;;7.84;100.00;99792.38;4992847;28;19922;-85
2023/09/05 16:38:25;;;;;;;;;;;;;;;7.82;100.00;99788.00;4993330;28;19928;-88
2023/09/05 16:40:51;;;;;;;;;;;;;;;7.94;100.00;99791.16;4993344;28;19918;-87
2023/09/05 16:43:16;;;;;;;;;;;;;;;7.86;100.00;99794.03;4993196;28;20282;-86
2023/09/05 16:45:47;;;;;;;;;;;;;;;7.84;100.00;99789.72;4992560;28;19973;-85
2023/09/05 16:48:13;;;;;;;;;;;;;;;7.85;100.00;99796.72;4993110;28;19972;-85
2023/09/05 16:50:38;;;;;;;;;;;;;;;7.81;100.00;99785.41;4993028;28;19921;-85
2023/09/05 16:53:03;;;;;;;;;;;;;;;7.81;100.00;99801.22;4993055;28;20016;-86
2023/09/05 16:55:28;;;;;;;;;;;;;;;7.86;100.00;99803.72;4993102;28;19925;-86
2023/09/05 16:57:54;;;;;;;;;;;;;;;8.00;100.00;99806.78;4993089;28;20258;-85
2023/09/05 17:00:19;;;;;;;;;;;;;;;7.93;100.00;99810.53;4974158;28;20895;-83
2023/09/05 17:02:44;;;;;;;;;;;;;;;7.96;100.00;99811.31;4991649;28;19925;-84
2023/09/05 17:05:10;;;;;;;;;;;;;;;7.89;100.00;99811.53;4992980;28;20017;-86
2023/09/05 17:07:35;;;;;;;;;;;;;;;7.88;100.00;99812.44;4992239;28;20288;-85
2023/09/05 17:10:00;;;;;;;;;;;;;;;7.73;100.00;99822.56;4993159;28;20373;-86
2023/09/05 17:12:26;;;;;;;;;;;;;;;7.81;100.00;99820.56;4992859;28;20008;-86
2023/09/05 17:14:51;;;;;;;;;;;;;;;7.85;100.00;99825.72;4991461;28;20320;-86
2023/09/05 17:17:16;;;;;;;;;;;;;;;7.78;100.00;99820.66;4992796;28;19917;-87
2023/09/05 17:19:41;;;;;;;;;;;;;;;7.82;100.00;99821.44;4992701;28;19918;-85
2023/09/05 17:22:07;;;;;;;;;;;;;;;7.88;100.00;99818.63;4992810;28;19940;-86
2023/09/05 17:24:32;;;;;;;;;;;;;;;7.80;100.00;99826.75;4992846;28;20064;-85
2023/09/05 17:26:58;;;;;;;;;;;;;;;7.77;100.00;99826.84;4992984;28;19949;-86
2023/09/05 17:29:23;;;;;;;;;;;;;;;7.86;100.00;99824.84;4992230;28;19925;-85
2023/09/05 17:31:48;;;;;;;;;;;;;;;7.71;100.00;99824.41;4992307;28;20440;-84
2023/09/05 17:34:14;;;;;;;;;;;;;;;7.76;100.00;99833.03;4992875;28;19925;-85
2023/09/05 17:36:40;;;;;;;;;;;;;;;7.77;100.00;99826.84;4992819;28;20026;-87
2023/09/05 17:39:07;;;;;;;;;;;;;;;7.77;100.00;99829.50;4992856;28;20011;-88
2023/09/05 17:41:32;;;;;;;;;;;;;;;7.71;100.00;99832.31;4992891;28;19918;-86
2023/09/05 17:43:57;;;;;;;;;;;;;;;7.80;100.00;99839.06;4992780;28;19925;-82
2023/09/05 17:46:26;;;;;;;;;;;;;;;7.78;100.00;99836.47;4976806;28;19922;-84
2023/09/05 17:48:51;;;;;;;;;;;;;;;7.70;100.00;99845.53;4995844;28;20288;-84
2023/09/05 17:51:16;;;;;;;;;;;;;;;7.77;100.00;99842.69;4996558;28;19918;-84
2023/09/05 17:53:42;;;;;;;;;;;;;;;7.77;100.00;99852.34;4978839;28;20412;-86
2023/09/05 17:56:07;;;;;;;;;;;;;;;7.75;100.00;99840.97;4996308;28;20368;-85
2023/09/05 17:58:32;;;;;;;;;;;;;;;7.73;100.00;99848.09;4996076;28;19926;-85
2023/09/05 18:00:57;;;;;;;;;;;;;;;7.75;100.00;99848.91;4977208;28;19928;-87
2023/09/05 18:03:23;;;;;;;;;;;;;;;7.68;100.00;99857.91;4996134;28;19918;-85
2023/09/05 18:05:49;;;;;;;;;;;;;;;7.72;100.00;99852.50;4978989;28;19940;-84
2023/09/05 18:08:15;;;;;;;;;;;;;;;7.68;100.00;99860.56;4978724;28;20361;-86
2023/09/05 18:10:41;;;;;;;;;;;;;;;7.74;100.00;99863.88;4995917;28;19918;-85
2023/09/05 18:13:06;;;;;;;;;;;;;;;7.77;100.00;99874.34;4995999;28;19964;-87
2023/09/05 18:15:32;;;;;;;;;;;;;;;7.78;100.00;99872.53;4977282;28;19918;-86
2023/09/05 18:17:57;;;;;;;;;;;;;;;7.80;100.00;99870.72;4978378;28;20369;-84
2023/09/05 18:20:22;;;;;;;;;;;;;;;7.74;100.00;99869.16;4995791;28;19929;-85
2023/09/05 18:22:50;;;;;;;;;;;;;;;7.79;100.00;99876.94;4978284;28;19917;-87
2023/09/05 18:25:15;;;;;;;;;;;;;;;7.83;100.00;99873.25;4995841;28;20262;-86
2023/09/05 18:27:40;;;;;;;;;;;;;;;7.78;100.00;99880.47;4995652;28;19929;-84
2023/09/05 18:30:07;;;;;;;;;;;;;;;7.84;100.00;99876.78;4976988;28;19925;-85
2023/09/05 18:32:33;;;;;;;;;;;;;;;7.88;100.00;99865.22;4995002;28;19925;-86
2023/09/05 18:34:58;;;;;;;;;;;;;;;7.82;100.00;99871.56;4995356;28;20357;-85
2023/09/05 18:37:24;;;;;;;;;;;;;;;7.90;100.00;99868.69;4995833;28;20377;-88
2023/09/05 18:39:50;;;;;;;;;;;;;;;7.87;100.00;99874.91;4995173;28;19965;-85
2023/09/05 18:42:15;;;;;;;;;;;;;;;7.93;100.00;99879.13;4995444;28;19925;-86
2023/09/05 18:44:41;;;;;;;;;;;;;;;7.89;100.00;99880.16;4976785;28;20748;-86
2023/09/05 18:47:07;;;;;;;;;;;;;;;7.89;100.00;99874.88;4995291;28;19925;-86
2023/09/05 18:49:33;;;;;;;;;;;;;;;7.86;100.00;99882.88;4995311;28;20300;-90
2023/09/05 18:51:59;;;;;;;;;;;;;;;7.86;100.00;99880.22;4977700;28;19925;-86
2023/09/05 18:54:24;;;;;;;;;;;;;;;7.85;100.00;99882.03;4995469;28;19918;-85
2023/09/05 18:56:50;;;;;;;;;;;;;;;7.85;100.00;99889.03;4993851;28;20373;-85
2023/09/05 18:59:16;;;;;;;;;;;;;;;7.80;100.00;99887.44;4977648;28;19914;-86
2023/09/05 19:01:41;;;;;;;;;;;;;;;7.84;100.00;99895.25;4993734;28;20455;-86
2023/09/05 19:04:06;;;;;;;;;;;;;;;7.79;100.00;99898.88;4995182;28;20012;-86
2023/09/05 19:06:32;;;;;;;;;;;;;;;7.74;100.00;99898.16;4978127;28;19976;-86
2023/09/05 19:08:57;;;;;;;;;;;;;;;7.86;100.00;99899.56;4995095;28;19921;-86
2023/09/05 19:11:22;;;;;;;;;;;;;;;7.79;100.00;99895.38;4995410;28;19913;-88
2023/09/05 19:13:48;;;;;;;;;;;;;;;7.83;100.00;99891.72;4977258;28;19925;-87
2023/09/05 19:16:14;;;;;;;;;;;;;;;7.79;100.00;99888.31;4993891;28;20005;-85
2023/09/05 19:18:41;;;;;;;;;;;;;;;7.76;100.00;99893.69;4994825;28;19949;-85
2023/09/05 19:21:07;;;;;;;;;;;;;;;7.77;100.00;99898.06;4977177;28;20292;-85
2023/09/05 19:23:32;;;;;;;;;;;;;;;7.73;100.00;99901.69;4994649;28;20012;-85
2023/09/05 19:25:57;;;;;;;;;;;;;;;7.70;100.00;99904.41;4994624;28;20495;-86
2023/09/05 19:28:22;;;;;;;;;;;;;;;7.81;100.00;99907.59;4977087;28;19918;-85
2023/09/05 19:30:48;;;;;;;;;;;;;;;7.91;100.00;99908.19;4993305;28;19964;-85
2023/09/05 19:33:13;;;;;;;;;;;;;;;7.77;100.00;99907.75;4994529;28;19918;-85
2023/09/05 19:35:38;;;;;;;;;;;;;;;7.86;100.00;99910.09;4976946;28;19928;-85
2023/09/05 19:38:03;;;;;;;;;;;;;;;7.84;100.00;99911.09;4994461;28;19913;-85
2023/09/05 19:40:30;;;;;;;;;;;;;;;7.84;100.00;99906.66;4994597;28;19929;-84
2023/09/05 19:42:56;;;;;;;;;;;;;;;7.87;100.00;99911.84;4976612;28;19918;-85
2023/09/05 19:45:21;;;;;;;;;;;;;;;7.88;100.00;99912.69;4993019;28;20025;-85
2023/09/05 19:47:46;;;;;;;;;;;;;;;7.81;100.00;99907.59;4994109;28;20009;-85
2023/09/05 19:50:12;;;;;;;;;;;;;;;7.77;100.00;99913.00;4976900;28;19917;-88
2023/09/05 19:52:37;;;;;;;;;;;;;;;7.85;100.00;99908.41;4994248;28;20012;-84
2023/09/05 19:55:04;;;;;;;;;;;;;;;7.78;100.00;99912.97;4994171;28;19922;-88
2023/09/05 19:57:30;;;;;;;;;;;;;;;7.78;100.00;99907.69;4978249;28;20000;-85
2023/09/05 19:59:57;;;;;;;;;;;;;;;7.83;100.00;99910.19;4993460;28;20017;-86
2023/09/05 20:02:22;;;;;;;;;;;;;;;8.06;100.00;99917.44;4993932;28;19921;-86
2023/09/05 20:04:48;;;;;;;;;;;;;;;8.15;100.00;99914.53;4976742;28;19925;-86
2023/09/05 20:07:13;;;;;;;;;;;;;;;8.00;100.00;99913.19;4993996;28;19925;-86
2023/09/05 20:09:38;;;;;;;;;;;;;;;7.93;100.00;99910.78;4993540;28;19924;-86
2023/09/05 20:12:05;;;;;;;;;;;;;;;7.97;100.00;99912.44;4976229;28;19921;-88
2023/09/05 20:14:30;;;;;;;;;;;;;;;7.94;100.00;99909.88;4992686;28;19922;-85
2023/09/05 20:16:56;;;;;;;;;;;;;;;7.97;100.00;99910.66;4993511;28;20010;-85
2023/09/05 20:19:21;;;;;;;;;;;;;;;7.98;100.00;99906.25;4976478;28;20012;-85
2023/09/05 20:21:46;;;;;;;;;;;;;;;7.98;100.00;99919.44;4993794;28;19956;-85
2023/09/05 20:24:12;;;;;;;;;;;;;;;7.91;100.00;99917.88;4993655;28;19928;-84
2023/09/05 20:26:38;;;;;;;;;;;;;;;7.97;100.00;99912.44;4975897;28;19930;-85